Terminal Aerodrome Forecast
Issued by NWS

Home | Current Version | Previous Version | Text Only | Print | Product List | Glossary On
Versions: 1 2 3 4 5 6 7 8 9 10 11 12 13
000
FTUS42 TJSJ 301700 RRA
TAFJBQ
TAF
TJBQ 301739Z 3018/0118 35008KT P6SM VCSH FEW025 SCT040
     FM302330 VRB02KT P6SM SKC
     FM011430 08012KT P6SM FEW025=

USA.gov is the U.S. government's official web portal to all federal, state and local government web resources and services.